Terminal Aerodrome Forecast
Issued by NWS Paducah, KY

Home | Current Version | Previous Version | Text Only | Print | Product List | Glossary On
Versions: 1 2 3 4 5 6 7 8 9 10 11 12 13 14 15 16 17 18
000
FTUS43 KPAH 292320
TAFPAH
TAF
KPAH 292320Z 3000/3024 17006KT P6SM SCT035
     FM300600 17007KT P6SM FEW030 SCT100
      TEMPO 3009/3012 5SM BR
     FM301300 19010KT P6SM -SHRA BKN040 OVC080
      TEMPO 3022/3024 3SM -TSRA BR BKN015 OVC045CB=

USA.gov is the U.S. government's official web portal to all federal, state and local government web resources and services.